sensor_id;sensor_type;location;lat;lon;timestamp;temperature;humidity
34249;DHT22;20508;50.834;3.160;2022-07-30T00:05:35;25.50;45.90
34249;DHT22;20508;50.834;3.160;2022-07-30T00:08:23;25.50;45.80
34249;DHT22;20508;50.834;3.160;2022-07-30T00:10:52;25.50;46.00
34249;DHT22;20508;50.834;3.160;2022-07-30T00:13:30;25.40;46.00
34249;DHT22;20508;50.834;3.160;2022-07-30T00:16:00;25.50;46.00
34249;DHT22;20508;50.834;3.160;2022-07-30T00:18:39;25.40;45.90
34249;DHT22;20508;50.834;3.160;2022-07-30T00:21:26;25.50;45.90
34249;DHT22;20508;50.834;3.160;2022-07-30T00:23:53;25.40;45.70
34249;DHT22;20508;50.834;3.160;2022-07-30T00:26:28;25.40;45.70
34249;DHT22;20508;50.834;3.160;2022-07-30T00:29:05;25.50;45.70
34249;DHT22;20508;50.834;3.160;2022-07-30T00:31:36;25.50;45.60
34249;DHT22;20508;50.834;3.160;2022-07-30T00:34:19;25.50;45.50
34249;DHT22;20508;50.834;3.160;2022-07-30T00:36:55;25.60;45.40
34249;DHT22;20508;50.834;3.160;2022-07-30T00:39:36;25.50;45.30
34249;DHT22;20508;50.834;3.160;2022-07-30T00:42:18;25.60;45.40
34249;DHT22;20508;50.834;3.160;2022-07-30T00:44:53;25.60;45.30
34249;DHT22;20508;50.834;3.160;2022-07-30T00:47:42;25.60;45.30
34249;DHT22;20508;50.834;3.160;2022-07-30T00:50:19;25.50;45.20
34249;DHT22;20508;50.834;3.160;2022-07-30T00:52:55;25.50;45.20
34249;DHT22;20508;50.834;3.160;2022-07-30T00:55:23;25.60;45.20
34249;DHT22;20508;50.834;3.160;2022-07-30T00:58:05;25.50;45.10
34249;DHT22;20508;50.834;3.160;2022-07-30T01:00:52;25.60;45.20
34249;DHT22;20508;50.834;3.160;2022-07-30T01:03:48;25.50;45.20
34249;DHT22;20508;50.834;3.160;2022-07-30T01:06:26;25.50;45.10
34249;DHT22;20508;50.834;3.160;2022-07-30T01:09:02;25.50;45.10
34249;DHT22;20508;50.834;3.160;2022-07-30T01:11:39;25.50;45.10
34249;DHT22;20508;50.834;3.160;2022-07-30T01:14:16;25.60;45.10
34249;DHT22;20508;50.834;3.160;2022-07-30T01:17:18;25.50;45.60
34249;DHT22;20508;50.834;3.160;2022-07-30T01:20:22;25.50;44.90
34249;DHT22;20508;50.834;3.160;2022-07-30T01:28:16;25.40;45.30
34249;DHT22;20508;50.834;3.160;2022-07-30T01:30:46;25.40;45.20
34249;DHT22;20508;50.834;3.160;2022-07-30T01:33:26;25.30;45.20
34249;DHT22;20508;50.834;3.160;2022-07-30T01:36:20;25.30;45.20
34249;DHT22;20508;50.834;3.160;2022-07-30T01:39:20;25.30;45.10
34249;DHT22;20508;50.834;3.160;2022-07-30T01:41:56;25.30;45.10
34249;DHT22;20508;50.834;3.160;2022-07-30T01:44:39;25.30;45.20
34249;DHT22;20508;50.834;3.160;2022-07-30T01:47:17;25.30;45.20
34249;DHT22;20508;50.834;3.160;2022-07-30T01:49:48;25.30;45.00
34249;DHT22;20508;50.834;3.160;2022-07-30T01:52:24;25.30;45.10
34249;DHT22;20508;50.834;3.160;2022-07-30T01:55:12;25.30;44.90
34249;DHT22;20508;50.834;3.160;2022-07-30T01:57:58;25.30;44.70
34249;DHT22;20508;50.834;3.160;2022-07-30T02:00:29;25.30;44.70
34249;DHT22;20508;50.834;3.160;2022-07-30T02:03:19;25.30;44.70
34249;DHT22;20508;50.834;3.160;2022-07-30T02:05:58;25.30;44.70
34249;DHT22;20508;50.834;3.160;2022-07-30T02:08:44;25.30;44.70
34249;DHT22;20508;50.834;3.160;2022-07-30T02:11:39;25.30;44.80
34249;DHT22;20508;50.834;3.160;2022-07-30T02:14:43;25.20;44.70
34249;DHT22;20508;50.834;3.160;2022-07-30T02:17:23;25.20;44.70
34249;DHT22;20508;50.834;3.160;2022-07-30T02:19:53;25.20;44.80
34249;DHT22;20508;50.834;3.160;2022-07-30T02:22:25;25.10;44.90
34249;DHT22;20508;50.834;3.160;2022-07-30T02:25:12;25.10;44.90
34249;DHT22;20508;50.834;3.160;2022-07-30T02:28:01;25.10;44.80
34249;DHT22;20508;50.834;3.160;2022-07-30T02:30:35;25.20;44.70
34249;DHT22;20508;50.834;3.160;2022-07-30T02:33:16;25.10;44.70
34249;DHT22;20508;50.834;3.160;2022-07-30T02:35:48;25.20;44.70
34249;DHT22;20508;50.834;3.160;2022-07-30T02:38:19;25.20;44.60
34249;DHT22;20508;50.834;3.160;2022-07-30T02:41:07;25.20;44.50
34249;DHT22;20508;50.834;3.160;2022-07-30T02:43:59;25.20;44.40
34249;DHT22;20508;50.834;3.160;2022-07-30T02:46:31;25.20;44.40
34249;DHT22;20508;50.834;3.160;2022-07-30T02:49:30;25.20;44.40
34249;DHT22;20508;50.834;3.160;2022-07-30T02:52:03;25.10;44.40
34249;DHT22;20508;50.834;3.160;2022-07-30T02:54:43;25.10;44.40
34249;DHT22;20508;50.834;3.160;2022-07-30T02:57:21;25.10;44.30
34249;DHT22;20508;50.834;3.160;2022-07-30T03:00:06;25.10;44.20
34249;DHT22;20508;50.834;3.160;2022-07-30T03:02:47;25.10;44.30
34249;DHT22;20508;50.834;3.160;2022-07-30T03:05:24;25.20;44.20
34249;DHT22;20508;50.834;3.160;2022-07-30T03:07:55;25.20;44.10
34249;DHT22;20508;50.834;3.160;2022-07-30T03:10:28;25.20;44.10
34249;DHT22;20508;50.834;3.160;2022-07-30T03:13:11;25.20;44.00
34249;DHT22;20508;50.834;3.160;2022-07-30T03:15:43;25.20;43.90
34249;DHT22;20508;50.834;3.160;2022-07-30T03:18:17;25.30;43.80
34249;DHT22;20508;50.834;3.160;2022-07-30T03:20:54;25.30;43.80
34249;DHT22;20508;50.834;3.160;2022-07-30T03:23:51;25.30;43.70
34249;DHT22;20508;50.834;3.160;2022-07-30T03:26:40;25.30;43.80
34249;DHT22;20508;50.834;3.160;2022-07-30T03:29:21;25.30;43.70
34249;DHT22;20508;50.834;3.160;2022-07-30T03:32:20;25.20;43.80
34249;DHT22;20508;50.834;3.160;2022-07-30T03:35:16;25.20;44.00
34249;DHT22;20508;50.834;3.160;2022-07-30T03:38:01;25.10;43.90
34249;DHT22;20508;50.834;3.160;2022-07-30T03:40:41;25.10;44.10
34249;DHT22;20508;50.834;3.160;2022-07-30T03:43:11;25.10;44.20
34249;DHT22;20508;50.834;3.160;2022-07-30T03:45:57;25.10;44.30
34249;DHT22;20508;50.834;3.160;2022-07-30T03:55:13;25.10;44.20
34249;DHT22;20508;50.834;3.160;2022-07-30T03:57:52;25.10;44.10
34249;DHT22;20508;50.834;3.160;2022-07-30T04:00:46;25.00;44.20
34249;DHT22;20508;50.834;3.160;2022-07-30T04:03:51;25.00;44.10
34249;DHT22;20508;50.834;3.160;2022-07-30T04:06:27;25.10;44.00
34249;DHT22;20508;50.834;3.160;2022-07-30T04:09:05;25.00;44.20
34249;DHT22;20508;50.834;3.160;2022-07-30T04:12:01;25.00;44.20
34249;DHT22;20508;50.834;3.160;2022-07-30T04:14:47;25.00;44.10
34249;DHT22;20508;50.834;3.160;2022-07-30T04:17:40;25.00;44.20
34249;DHT22;20508;50.834;3.160;2022-07-30T04:20:38;25.00;44.10
34249;DHT22;20508;50.834;3.160;2022-07-30T04:23:08;24.90;44.30
34249;DHT22;20508;50.834;3.160;2022-07-30T04:25:48;24.80;44.40
34249;DHT22;20508;50.834;3.160;2022-07-30T04:28:48;24.90;44.50
34249;DHT22;20508;50.834;3.160;2022-07-30T04:31:41;24.90;44.50
34249;DHT22;20508;50.834;3.160;2022-07-30T04:34:15;24.90;44.60
34249;DHT22;20508;50.834;3.160;2022-07-30T04:37:05;24.90;44.70
34249;DHT22;20508;50.834;3.160;2022-07-30T04:45:21;24.90;44.50
34249;DHT22;20508;50.834;3.160;2022-07-30T04:48:20;24.90;44.40
34249;DHT22;20508;50.834;3.160;2022-07-30T04:50:55;25.00;44.30
34249;DHT22;20508;50.834;3.160;2022-07-30T04:56:39;24.90;44.40
34249;DHT22;20508;50.834;3.160;2022-07-30T04:59:28;24.80;44.40
34249;DHT22;20508;50.834;3.160;2022-07-30T05:02:03;24.80;44.50
34249;DHT22;20508;50.834;3.160;2022-07-30T05:04:58;24.80;44.60
34249;DHT22;20508;50.834;3.160;2022-07-30T05:10:52;24.80;44.60
34249;DHT22;20508;50.834;3.160;2022-07-30T05:16:27;24.90;44.80
34249;DHT22;20508;50.834;3.160;2022-07-30T05:19:39;24.90;44.70
34249;DHT22;20508;50.834;3.160;2022-07-30T05:22:17;25.00;44.70
34249;DHT22;20508;50.834;3.160;2022-07-30T05:24:58;25.00;44.80
34249;DHT22;20508;50.834;3.160;2022-07-30T05:27:39;25.00;44.70
34249;DHT22;20508;50.834;3.160;2022-07-30T05:30:18;25.10;44.80
34249;DHT22;20508;50.834;3.160;2022-07-30T05:33:05;25.00;44.80
34249;DHT22;20508;50.834;3.160;2022-07-30T05:35:46;25.00;44.90
34249;DHT22;20508;50.834;3.160;2022-07-30T05:38:37;25.10;44.90
34249;DHT22;20508;50.834;3.160;2022-07-30T05:41:18;25.10;45.00
34249;DHT22;20508;50.834;3.160;2022-07-30T05:44:12;25.00;45.10
34249;DHT22;20508;50.834;3.160;2022-07-30T05:49:43;25.10;45.30
34249;DHT22;20508;50.834;3.160;2022-07-30T05:52:17;25.00;45.30
34249;DHT22;20508;50.834;3.160;2022-07-30T05:55:01;25.10;45.40
34249;DHT22;20508;50.834;3.160;2022-07-30T05:57:48;25.00;45.40
34249;DHT22;20508;50.834;3.160;2022-07-30T06:00:24;25.10;45.40
34249;DHT22;20508;50.834;3.160;2022-07-30T06:03:09;25.00;45.60
34249;DHT22;20508;50.834;3.160;2022-07-30T06:05:55;25.00;45.50
34249;DHT22;20508;50.834;3.160;2022-07-30T06:08:25;25.00;45.60
34249;DHT22;20508;50.834;3.160;2022-07-30T06:11:04;25.00;45.70
34249;DHT22;20508;50.834;3.160;2022-07-30T06:13:53;25.00;45.80
34249;DHT22;20508;50.834;3.160;2022-07-30T06:16:35;25.00;45.90
34249;DHT22;20508;50.834;3.160;2022-07-30T06:19:13;25.00;46.00
34249;DHT22;20508;50.834;3.160;2022-07-30T06:21:53;25.00;46.20
34249;DHT22;20508;50.834;3.160;2022-07-30T06:24:32;25.00;46.30
34249;DHT22;20508;50.834;3.160;2022-07-30T06:27:26;24.90;46.70
34249;DHT22;20508;50.834;3.160;2022-07-30T06:29:59;25.00;47.10
34249;DHT22;20508;50.834;3.160;2022-07-30T06:32:43;24.90;47.60
34249;DHT22;20508;50.834;3.160;2022-07-30T06:35:27;24.90;47.90
34249;DHT22;20508;50.834;3.160;2022-07-30T06:38:09;24.90;48.00
34249;DHT22;20508;50.834;3.160;2022-07-30T06:40:44;25.00;48.10
34249;DHT22;20508;50.834;3.160;2022-07-30T06:43:44;25.00;48.10
34249;DHT22;20508;50.834;3.160;2022-07-30T06:46:25;25.00;48.20
34249;DHT22;20508;50.834;3.160;2022-07-30T06:49:04;25.00;48.30
34249;DHT22;20508;50.834;3.160;2022-07-30T06:51:48;25.10;48.20
34249;DHT22;20508;50.834;3.160;2022-07-30T06:54:32;25.20;48.10
34249;DHT22;20508;50.834;3.160;2022-07-30T06:57:11;25.10;48.20
34249;DHT22;20508;50.834;3.160;2022-07-30T06:59:50;25.10;48.40
34249;DHT22;20508;50.834;3.160;2022-07-30T07:02:20;25.10;48.20
34249;DHT22;20508;50.834;3.160;2022-07-30T07:05:01;25.10;48.20
34249;DHT22;20508;50.834;3.160;2022-07-30T07:07:52;25.10;48.20
34249;DHT22;20508;50.834;3.160;2022-07-30T07:10:51;25.00;48.20
34249;DHT22;20508;50.834;3.160;2022-07-30T07:13:42;25.10;48.00
34249;DHT22;20508;50.834;3.160;2022-07-30T07:16:27;25.00;48.10
34249;DHT22;20508;50.834;3.160;2022-07-30T07:19:23;25.00;48.20
34249;DHT22;20508;50.834;3.160;2022-07-30T07:22:06;25.10;48.00
34249;DHT22;20508;50.834;3.160;2022-07-30T07:24:55;25.10;48.10
34249;DHT22;20508;50.834;3.160;2022-07-30T07:27:21;25.10;48.00
34249;DHT22;20508;50.834;3.160;2022-07-30T07:30:00;25.20;48.00
34249;DHT22;20508;50.834;3.160;2022-07-30T07:32:36;25.10;47.90
34249;DHT22;20508;50.834;3.160;2022-07-30T07:35:27;25.10;47.80
34249;DHT22;20508;50.834;3.160;2022-07-30T07:38:16;25.20;47.90
34249;DHT22;20508;50.834;3.160;2022-07-30T07:40:55;25.20;47.80
34249;DHT22;20508;50.834;3.160;2022-07-30T07:43:57;25.10;47.90
34249;DHT22;20508;50.834;3.160;2022-07-30T07:46:36;25.10;47.80
34249;DHT22;20508;50.834;3.160;2022-07-30T07:49:13;25.10;47.80
34249;DHT22;20508;50.834;3.160;2022-07-30T07:51:44;25.20;47.70
34249;DHT22;20508;50.834;3.160;2022-07-30T07:54:38;25.20;47.60
34249;DHT22;20508;50.834;3.160;2022-07-30T07:57:27;25.20;47.40
34249;DHT22;20508;50.834;3.160;2022-07-30T08:00:14;25.30;47.30
34249;DHT22;20508;50.834;3.160;2022-07-30T08:02:50;25.40;46.90
34249;DHT22;20508;50.834;3.160;2022-07-30T08:05:20;25.40;46.70
34249;DHT22;20508;50.834;3.160;2022-07-30T08:08:13;25.50;46.50
34249;DHT22;20508;50.834;3.160;2022-07-30T08:13:57;25.60;46.10
34249;DHT22;20508;50.834;3.160;2022-07-30T08:19:34;25.70;45.20
34249;DHT22;20508;50.834;3.160;2022-07-30T08:25:15;25.60;45.00
34249;DHT22;20508;50.834;3.160;2022-07-30T08:27:57;25.70;44.80
34249;DHT22;20508;50.834;3.160;2022-07-30T08:30:30;25.70;44.80
34249;DHT22;20508;50.834;3.160;2022-07-30T08:33:29;25.60;44.90
34249;DHT22;20508;50.834;3.160;2022-07-30T08:36:06;25.60;44.90
34249;DHT22;20508;50.834;3.160;2022-07-30T08:38:54;25.60;44.80
34249;DHT22;20508;50.834;3.160;2022-07-30T08:41:28;25.70;44.70
34249;DHT22;20508;50.834;3.160;2022-07-30T08:44:14;25.70;44.00
34249;DHT22;20508;50.834;3.160;2022-07-30T08:46:56;25.80;43.30
34249;DHT22;20508;50.834;3.160;2022-07-30T08:49:26;25.80;42.40
34249;DHT22;20508;50.834;3.160;2022-07-30T08:52:03;25.80;42.40
34249;DHT22;20508;50.834;3.160;2022-07-30T08:54:45;25.90;42.20
34249;DHT22;20508;50.834;3.160;2022-07-30T08:57:24;25.90;41.00
34249;DHT22;20508;50.834;3.160;2022-07-30T08:59:53;26.00;40.70
34249;DHT22;20508;50.834;3.160;2022-07-30T09:02:30;26.00;40.70
34249;DHT22;20508;50.834;3.160;2022-07-30T09:05:31;26.10;40.80
34249;DHT22;20508;50.834;3.160;2022-07-30T09:08:05;26.10;41.00
34249;DHT22;20508;50.834;3.160;2022-07-30T09:10:37;26.10;41.00
34249;DHT22;20508;50.834;3.160;2022-07-30T09:13:39;26.00;40.80
34249;DHT22;20508;50.834;3.160;2022-07-30T09:16:28;26.10;40.80
34249;DHT22;20508;50.834;3.160;2022-07-30T09:19:16;26.00;40.60
34249;DHT22;20508;50.834;3.160;2022-07-30T09:22:00;26.10;40.20
34249;DHT22;20508;50.834;3.160;2022-07-30T09:24:40;26.10;40.30
34249;DHT22;20508;50.834;3.160;2022-07-30T09:27:34;26.10;40.50
34249;DHT22;20508;50.834;3.160;2022-07-30T09:30:13;26.20;40.50
34249;DHT22;20508;50.834;3.160;2022-07-30T09:32:56;26.20;40.90
34249;DHT22;20508;50.834;3.160;2022-07-30T09:35:32;26.20;40.50
34249;DHT22;20508;50.834;3.160;2022-07-30T09:38:01;26.20;40.80
34249;DHT22;20508;50.834;3.160;2022-07-30T09:40:30;26.20;40.90
34249;DHT22;20508;50.834;3.160;2022-07-30T09:43:24;26.30;40.60
34249;DHT22;20508;50.834;3.160;2022-07-30T09:46:00;26.30;40.70
34249;DHT22;20508;50.834;3.160;2022-07-30T09:48:37;26.20;40.60
34249;DHT22;20508;50.834;3.160;2022-07-30T09:51:22;26.20;40.60
34249;DHT22;20508;50.834;3.160;2022-07-30T09:54:05;26.30;40.70
34249;DHT22;20508;50.834;3.160;2022-07-30T09:56:34;26.30;40.90
34249;DHT22;20508;50.834;3.160;2022-07-30T09:59:29;26.20;41.00
34249;DHT22;20508;50.834;3.160;2022-07-30T10:05:19;26.20;41.20
34249;DHT22;20508;50.834;3.160;2022-07-30T10:08:02;26.30;41.00
34249;DHT22;20508;50.834;3.160;2022-07-30T10:10:30;26.30;41.00
34249;DHT22;20508;50.834;3.160;2022-07-30T10:13:02;26.20;40.90
34249;DHT22;20508;50.834;3.160;2022-07-30T10:15:41;26.30;40.70
34249;DHT22;20508;50.834;3.160;2022-07-30T10:18:11;26.40;40.90
34249;DHT22;20508;50.834;3.160;2022-07-30T10:20:50;26.50;40.80
34249;DHT22;20508;50.834;3.160;2022-07-30T10:23:33;26.50;40.60
34249;DHT22;20508;50.834;3.160;2022-07-30T10:26:03;26.50;41.20
34249;DHT22;20508;50.834;3.160;2022-07-30T10:28:47;26.60;41.10
34249;DHT22;20508;50.834;3.160;2022-07-30T10:31:15;26.50;40.20
34249;DHT22;20508;50.834;3.160;2022-07-30T10:33:52;26.50;39.80
34249;DHT22;20508;50.834;3.160;2022-07-30T10:36:29;26.50;40.20
34249;DHT22;20508;50.834;3.160;2022-07-30T10:39:58;26.50;39.70
34249;DHT22;20508;50.834;3.160;2022-07-30T10:48:50;26.50;39.60
34249;DHT22;20508;50.834;3.160;2022-07-30T10:51:50;26.50;38.90
34249;DHT22;20508;50.834;3.160;2022-07-30T10:57:18;26.60;38.30
34249;DHT22;20508;50.834;3.160;2022-07-30T11:02:22;26.60;38.20
34249;DHT22;20508;50.834;3.160;2022-07-30T11:04:51;26.60;38.30
34249;DHT22;20508;50.834;3.160;2022-07-30T11:07:49;26.60;38.40
34249;DHT22;20508;50.834;3.160;2022-07-30T11:10:40;26.60;38.40
34249;DHT22;20508;50.834;3.160;2022-07-30T11:13:55;26.60;38.60
34249;DHT22;20508;50.834;3.160;2022-07-30T11:19:35;26.50;38.90
34249;DHT22;20508;50.834;3.160;2022-07-30T11:22:27;26.60;38.90
34249;DHT22;20508;50.834;3.160;2022-07-30T11:25:08;26.40;39.10
34249;DHT22;20508;50.834;3.160;2022-07-30T11:27:46;26.50;39.20
34249;DHT22;20508;50.834;3.160;2022-07-30T11:32:54;26.50;38.80
34249;DHT22;20508;50.834;3.160;2022-07-30T11:35:30;26.50;38.50
34249;DHT22;20508;50.834;3.160;2022-07-30T11:38:14;26.60;38.60
34249;DHT22;20508;50.834;3.160;2022-07-30T11:46:18;26.70;38.90
34249;DHT22;20508;50.834;3.160;2022-07-30T11:49:37;26.50;39.00
34249;DHT22;20508;50.834;3.160;2022-07-30T11:52:19;26.70;38.90
34249;DHT22;20508;50.834;3.160;2022-07-30T11:54:57;26.70;39.00
34249;DHT22;20508;50.834;3.160;2022-07-30T11:57:58;26.70;39.10
34249;DHT22;20508;50.834;3.160;2022-07-30T12:00:42;26.70;39.00
34249;DHT22;20508;50.834;3.160;2022-07-30T12:03:23;26.70;38.90
34249;DHT22;20508;50.834;3.160;2022-07-30T12:06:12;26.70;39.00
34249;DHT22;20508;50.834;3.160;2022-07-30T12:08:44;26.70;38.90
34249;DHT22;20508;50.834;3.160;2022-07-30T12:11:18;26.70;39.10
34249;DHT22;20508;50.834;3.160;2022-07-30T12:14:00;26.60;38.90
34249;DHT22;20508;50.834;3.160;2022-07-30T12:16:55;26.70;39.20
34249;DHT22;20508;50.834;3.160;2022-07-30T12:19:23;26.70;39.20
34249;DHT22;20508;50.834;3.160;2022-07-30T12:21:52;26.60;39.50
34249;DHT22;20508;50.834;3.160;2022-07-30T12:24:47;26.60;39.30
34249;DHT22;20508;50.834;3.160;2022-07-30T12:27:16;26.50;39.40
34249;DHT22;20508;50.834;3.160;2022-07-30T12:29:47;26.60;39.70
34249;DHT22;20508;50.834;3.160;2022-07-30T12:32:33;26.50;39.50
34249;DHT22;20508;50.834;3.160;2022-07-30T12:35:10;26.60;39.30
34249;DHT22;20508;50.834;3.160;2022-07-30T12:37:39;26.60;39.30
34249;DHT22;20508;50.834;3.160;2022-07-30T12:40:14;26.60;39.80
34249;DHT22;20508;50.834;3.160;2022-07-30T12:42:57;26.60;38.40
34249;DHT22;20508;50.834;3.160;2022-07-30T12:45:33;26.80;38.00
34249;DHT22;20508;50.834;3.160;2022-07-30T12:48:12;26.90;37.80
34249;DHT22;20508;50.834;3.160;2022-07-30T12:50:50;27.00;37.60
34249;DHT22;20508;50.834;3.160;2022-07-30T12:53:33;27.10;37.40
34249;DHT22;20508;50.834;3.160;2022-07-30T12:56:18;27.10;37.60
34249;DHT22;20508;50.834;3.160;2022-07-30T12:59:22;27.20;37.90
34249;DHT22;20508;50.834;3.160;2022-07-30T13:01:48;27.10;38.40
34249;DHT22;20508;50.834;3.160;2022-07-30T13:04:19;27.00;38.60
34249;DHT22;20508;50.834;3.160;2022-07-30T13:07:10;27.00;38.40
34249;DHT22;20508;50.834;3.160;2022-07-30T13:09:40;27.00;38.20
34249;DHT22;20508;50.834;3.160;2022-07-30T13:12:06;26.90;38.50
34249;DHT22;20508;50.834;3.160;2022-07-30T13:14:45;26.90;38.80
34249;DHT22;20508;50.834;3.160;2022-07-30T13:17:23;27.00;38.40
34249;DHT22;20508;50.834;3.160;2022-07-30T13:19:50;27.00;38.00
34249;DHT22;20508;50.834;3.160;2022-07-30T13:22:19;27.10;38.00
34249;DHT22;20508;50.834;3.160;2022-07-30T13:24:50;27.20;38.20
34249;DHT22;20508;50.834;3.160;2022-07-30T13:27:29;27.20;37.60
34249;DHT22;20508;50.834;3.160;2022-07-30T13:30:08;27.20;37.60
34249;DHT22;20508;50.834;3.160;2022-07-30T13:32:46;27.30;37.70
34249;DHT22;20508;50.834;3.160;2022-07-30T13:35:19;27.20;37.80
34249;DHT22;20508;50.834;3.160;2022-07-30T13:37:50;27.10;38.00
34249;DHT22;20508;50.834;3.160;2022-07-30T13:40:27;27.20;38.00
34249;DHT22;20508;50.834;3.160;2022-07-30T13:43:04;27.20;38.10
34249;DHT22;20508;50.834;3.160;2022-07-30T13:45:39;27.00;38.20
34249;DHT22;20508;50.834;3.160;2022-07-30T13:48:05;27.10;38.40
34249;DHT22;20508;50.834;3.160;2022-07-30T13:50:31;27.10;38.50
34249;DHT22;20508;50.834;3.160;2022-07-30T13:53:09;27.00;38.60
34249;DHT22;20508;50.834;3.160;2022-07-30T13:55:45;27.00;38.50
34249;DHT22;20508;50.834;3.160;2022-07-30T13:58:12;27.10;38.40
34249;DHT22;20508;50.834;3.160;2022-07-30T14:00:48;27.00;38.40
34249;DHT22;20508;50.834;3.160;2022-07-30T14:03:14;27.10;38.50
34249;DHT22;20508;50.834;3.160;2022-07-30T14:05:41;27.10;38.70
34249;DHT22;20508;50.834;3.160;2022-07-30T14:08:19;27.10;38.90
34249;DHT22;20508;50.834;3.160;2022-07-30T14:11:03;27.00;39.20
34249;DHT22;20508;50.834;3.160;2022-07-30T14:13:35;27.20;39.70
34249;DHT22;20508;50.834;3.160;2022-07-30T14:16:11;27.10;40.00
34249;DHT22;20508;50.834;3.160;2022-07-30T14:18:50;27.20;40.20
34249;DHT22;20508;50.834;3.160;2022-07-30T14:21:26;27.20;40.30
34249;DHT22;20508;50.834;3.160;2022-07-30T14:23:57;27.10;40.30
34249;DHT22;20508;50.834;3.160;2022-07-30T14:26:30;27.10;40.20
34249;DHT22;20508;50.834;3.160;2022-07-30T14:28:56;27.10;40.30
34249;DHT22;20508;50.834;3.160;2022-07-30T14:31:25;27.10;40.20
34249;DHT22;20508;50.834;3.160;2022-07-30T14:33:52;27.10;40.30
34249;DHT22;20508;50.834;3.160;2022-07-30T14:36:31;27.00;40.10
34249;DHT22;20508;50.834;3.160;2022-07-30T14:38:59;27.10;40.20
34249;DHT22;20508;50.834;3.160;2022-07-30T14:41:29;27.10;40.20
34249;DHT22;20508;50.834;3.160;2022-07-30T14:44:05;27.10;40.10
34249;DHT22;20508;50.834;3.160;2022-07-30T14:46:34;27.00;40.00
34249;DHT22;20508;50.834;3.160;2022-07-30T14:49:05;27.00;40.10
34249;DHT22;20508;50.834;3.160;2022-07-30T14:51:49;27.00;39.90
34249;DHT22;20508;50.834;3.160;2022-07-30T14:54:28;27.10;40.20
34249;DHT22;20508;50.834;3.160;2022-07-30T14:56:58;27.00;40.30
34249;DHT22;20508;50.834;3.160;2022-07-30T14:59:37;27.00;40.50
34249;DHT22;20508;50.834;3.160;2022-07-30T15:02:28;27.00;40.60
34249;DHT22;20508;50.834;3.160;2022-07-30T15:05:09;27.00;40.60
34249;DHT22;20508;50.834;3.160;2022-07-30T15:07:45;27.10;40.60
34249;DHT22;20508;50.834;3.160;2022-07-30T15:10:19;27.00;40.50
34249;DHT22;20508;50.834;3.160;2022-07-30T15:12:55;27.10;40.40
34249;DHT22;20508;50.834;3.160;2022-07-30T15:15:24;27.10;40.50
34249;DHT22;20508;50.834;3.160;2022-07-30T15:17:55;27.20;40.50
34249;DHT22;20508;50.834;3.160;2022-07-30T15:20:32;27.10;40.60
34249;DHT22;20508;50.834;3.160;2022-07-30T15:23:09;27.10;40.80
34249;DHT22;20508;50.834;3.160;2022-07-30T15:25:44;27.10;40.70
34249;DHT22;20508;50.834;3.160;2022-07-30T15:28:15;27.10;40.90
34249;DHT22;20508;50.834;3.160;2022-07-30T15:31:03;27.10;41.00
34249;DHT22;20508;50.834;3.160;2022-07-30T15:33:30;27.10;40.90
34249;DHT22;20508;50.834;3.160;2022-07-30T15:36:06;27.10;41.00
34249;DHT22;20508;50.834;3.160;2022-07-30T15:38:35;27.00;41.50
34249;DHT22;20508;50.834;3.160;2022-07-30T15:41:03;27.10;41.60
34249;DHT22;20508;50.834;3.160;2022-07-30T15:43:35;27.10;41.70
34249;DHT22;20508;50.834;3.160;2022-07-30T15:46:10;27.00;41.50
34249;DHT22;20508;50.834;3.160;2022-07-30T15:48:45;27.10;41.50
34249;DHT22;20508;50.834;3.160;2022-07-30T15:51:31;27.10;41.30
34249;DHT22;20508;50.834;3.160;2022-07-30T15:54:03;27.10;40.90
34249;DHT22;20508;50.834;3.160;2022-07-30T15:56:34;27.00;41.00
34249;DHT22;20508;50.834;3.160;2022-07-30T15:59:03;27.00;41.00
34249;DHT22;20508;50.834;3.160;2022-07-30T16:01:56;27.10;41.10
34249;DHT22;20508;50.834;3.160;2022-07-30T16:04:23;27.10;40.60
34249;DHT22;20508;50.834;3.160;2022-07-30T16:06:58;27.00;40.40
34249;DHT22;20508;50.834;3.160;2022-07-30T16:09:35;27.00;40.00
34249;DHT22;20508;50.834;3.160;2022-07-30T16:12:11;27.10;40.10
34249;DHT22;20508;50.834;3.160;2022-07-30T16:14:46;27.10;40.00
34249;DHT22;20508;50.834;3.160;2022-07-30T16:17:23;27.00;39.30
34249;DHT22;20508;50.834;3.160;2022-07-30T16:19:59;27.10;39.20
34249;DHT22;20508;50.834;3.160;2022-07-30T16:22:35;27.00;39.40
34249;DHT22;20508;50.834;3.160;2022-07-30T16:25:03;27.00;39.30
34249;DHT22;20508;50.834;3.160;2022-07-30T16:27:32;27.10;39.40
34249;DHT22;20508;50.834;3.160;2022-07-30T16:30:08;27.00;39.40
34249;DHT22;20508;50.834;3.160;2022-07-30T16:32:40;27.10;39.60
34249;DHT22;20508;50.834;3.160;2022-07-30T16:35:19;27.00;39.60
34249;DHT22;20508;50.834;3.160;2022-07-30T16:37:45;27.00;39.70
34249;DHT22;20508;50.834;3.160;2022-07-30T16:40:22;26.90;39.60
34249;DHT22;20508;50.834;3.160;2022-07-30T16:42:59;26.90;40.00
34249;DHT22;20508;50.834;3.160;2022-07-30T16:45:33;26.80;40.00
34249;DHT22;20508;50.834;3.160;2022-07-30T16:48:12;26.80;40.80
34249;DHT22;20508;50.834;3.160;2022-07-30T16:50:48;26.80;40.80
34249;DHT22;20508;50.834;3.160;2022-07-30T16:53:20;26.70;40.80
34249;DHT22;20508;50.834;3.160;2022-07-30T16:56:14;26.80;41.00
34249;DHT22;20508;50.834;3.160;2022-07-30T16:58:50;26.80;41.30
34249;DHT22;20508;50.834;3.160;2022-07-30T17:01:30;26.80;41.30
34249;DHT22;20508;50.834;3.160;2022-07-30T17:04:01;26.70;41.50
34249;DHT22;20508;50.834;3.160;2022-07-30T17:06:30;26.80;41.50
34249;DHT22;20508;50.834;3.160;2022-07-30T17:09:06;26.80;41.70
34249;DHT22;20508;50.834;3.160;2022-07-30T17:11:44;26.80;41.70
34249;DHT22;20508;50.834;3.160;2022-07-30T17:14:18;26.80;41.70
34249;DHT22;20508;50.834;3.160;2022-07-30T17:16:57;26.80;41.80
34249;DHT22;20508;50.834;3.160;2022-07-30T17:19:29;26.80;41.90
34249;DHT22;20508;50.834;3.160;2022-07-30T17:22:04;26.80;42.00
34249;DHT22;20508;50.834;3.160;2022-07-30T17:24:44;26.80;42.00
34249;DHT22;20508;50.834;3.160;2022-07-30T17:27:17;26.70;42.00
34249;DHT22;20508;50.834;3.160;2022-07-30T17:29:59;26.80;42.00
34249;DHT22;20508;50.834;3.160;2022-07-30T17:32:43;26.80;41.90
34249;DHT22;20508;50.834;3.160;2022-07-30T17:35:14;26.90;41.90
34249;DHT22;20508;50.834;3.160;2022-07-30T17:37:43;26.90;42.00
34249;DHT22;20508;50.834;3.160;2022-07-30T17:40:10;26.90;41.80
34249;DHT22;20508;50.834;3.160;2022-07-30T17:42:46;26.90;41.70
34249;DHT22;20508;50.834;3.160;2022-07-30T17:45:12;26.90;41.70
34249;DHT22;20508;50.834;3.160;2022-07-30T17:47:41;26.90;41.80
34249;DHT22;20508;50.834;3.160;2022-07-30T17:50:16;26.90;41.90
34249;DHT22;20508;50.834;3.160;2022-07-30T17:52:54;26.90;42.00
34249;DHT22;20508;50.834;3.160;2022-07-30T17:55:23;27.00;42.10
34249;DHT22;20508;50.834;3.160;2022-07-30T17:58:05;26.90;42.70